Time;durP1;ratioP1;P1;durP2;ratioP2;P2;SDS_P1;SDS_P2;PMS_P1;PMS_P2;Temp;Humidity;BMP_temperature;BMP_pressure;BME280_temperature;BME280_humidity;BME280_pressure;Samples;Min_cycle;Max_cycle;Signal;HPM_P1;HPM_P2
2023/04/27 00:01:56;;;;;;;6.30;2.27;;;6.70;99.90;;;;;;4974240;28;20291;-80
2023/04/27 00:04:22;;;;;;;4.80;2.00;;;6.70;99.90;;;;;;4976675;28;20235;-80
2023/04/27 00:06:48;;;;;;;5.63;1.70;;;6.70;99.90;;;;;;4978463;28;20555;-80
2023/04/27 00:09:13;;;;;;;4.27;1.90;;;6.60;99.90;;;;;;4977610;28;20721;-81
2023/04/27 00:11:39;;;;;;;5.10;1.73;;;6.60;99.90;;;;;;4978057;28;20635;-80
2023/04/27 00:14:05;;;;;;;6.07;1.83;;;6.60;99.90;;;;;;4978163;28;20184;-80
2023/04/27 00:16:31;;;;;;;7.23;2.30;;;6.60;99.90;;;;;;4992864;28;20180;-80
2023/04/27 00:18:56;;;;;;;2.33;1.53;;;6.60;99.90;;;;;;4978083;28;20184;-81
2023/04/27 00:21:22;;;;;;;7.93;1.90;;;6.60;99.90;;;;;;4977937;28;20339;-80
2023/04/27 00:23:48;;;;;;;6.23;1.70;;;6.60;99.90;;;;;;4978000;28;20215;-80
2023/04/27 00:26:13;;;;;;;8.60;2.13;;;6.60;99.90;;;;;;4977948;28;20188;-80
2023/04/27 00:28:39;;;;;;;5.20;2.20;;;6.60;99.90;;;;;;4977730;28;20642;-80
2023/04/27 00:31:05;;;;;;;6.23;2.03;;;6.60;99.90;;;;;;4977695;28;20180;-81
2023/04/27 00:33:31;;;;;;;4.07;2.13;;;6.60;99.90;;;;;;4977762;28;20180;-80
2023/04/27 00:36:00;;;;;;;2.40;1.60;;;6.60;99.90;;;;;;4977987;28;20169;-80
2023/04/27 00:38:27;;;;;;;3.50;1.77;;;6.60;99.90;;;;;;4977686;28;20172;-81
2023/04/27 00:41:03;;;;;;;3.63;1.57;;;6.60;99.90;;;;;;4992574;28;20181;-80
2023/04/27 00:43:29;;;;;;;4.80;2.23;;;6.60;99.90;;;;;;4992201;28;20533;-80
2023/04/27 00:45:55;;;;;;;3.80;1.90;;;6.60;99.90;;;;;;4977738;28;20183;-81
2023/04/27 00:48:21;;;;;;;3.50;1.83;;;6.60;99.90;;;;;;4977763;28;20223;-81
2023/04/27 00:50:47;;;;;;;4.57;2.00;;;6.50;99.90;;;;;;4992260;28;20216;-80
2023/04/27 00:53:14;;;;;;;3.90;1.70;;;6.50;99.90;;;;;;4977270;28;20215;-81
2023/04/27 00:55:40;;;;;;;4.00;1.70;;;6.50;99.90;;;;;;4977490;28;20177;-80
2023/04/27 00:58:05;;;;;;;5.00;1.90;;;6.50;99.90;;;;;;4976921;28;20295;-80
2023/04/27 01:00:31;;;;;;;3.77;1.83;;;6.50;99.90;;;;;;4976982;28;20490;-80
2023/04/27 01:02:57;;;;;;;5.40;2.00;;;6.50;99.90;;;;;;4977223;28;20283;-81
2023/04/27 01:05:26;;;;;;;4.37;1.90;;;6.40;99.90;;;;;;4977363;28;20204;-82
2023/04/27 01:07:51;;;;;;;7.87;2.40;;;6.40;99.90;;;;;;4991696;28;20191;-81
2023/04/27 01:10:17;;;;;;;8.07;2.10;;;6.40;99.90;;;;;;4991813;28;20554;-80
2023/04/27 01:12:43;;;;;;;3.90;2.07;;;6.50;99.90;;;;;;4976595;28;20188;-80
2023/04/27 01:15:09;;;;;;;4.00;1.97;;;6.40;99.90;;;;;;4991666;28;20196;-80
2023/04/27 01:17:35;;;;;;;6.70;2.70;;;6.40;99.90;;;;;;4977107;28;20255;-80
2023/04/27 01:20:01;;;;;;;3.57;2.47;;;6.40;99.90;;;;;;4976891;28;20280;-80
2023/04/27 01:22:27;;;;;;;4.47;2.20;;;6.40;99.90;;;;;;4976442;28;20239;-81
2023/04/27 01:24:53;;;;;;;10.20;2.40;;;6.40;99.90;;;;;;4977023;28;20620;-81
2023/04/27 01:27:18;;;;;;;5.40;2.30;;;6.40;99.90;;;;;;4991678;28;20189;-81
2023/04/27 01:29:44;;;;;;;6.30;2.40;;;6.40;99.90;;;;;;4976731;28;20180;-81
2023/04/27 01:32:11;;;;;;;9.37;2.43;;;6.50;99.90;;;;;;4976745;28;20560;-80
2023/04/27 01:34:37;;;;;;;8.03;2.57;;;6.40;99.90;;;;;;4976910;28;20157;-81
2023/04/27 01:37:03;;;;;;;4.43;2.23;;;6.40;99.90;;;;;;4976814;28;20188;-83
2023/04/27 01:39:28;;;;;;;4.27;2.60;;;6.30;99.90;;;;;;4991556;28;20191;-80
2023/04/27 01:41:54;;;;;;;4.47;2.43;;;6.30;99.90;;;;;;4991232;28;20299;-80
2023/04/27 01:44:22;;;;;;;4.23;2.07;;;6.30;99.90;;;;;;4976432;28;20219;-80
2023/04/27 01:46:48;;;;;;;8.07;2.60;;;6.20;99.90;;;;;;4991534;28;20186;-81
2023/04/27 01:49:14;;;;;;;3.60;2.40;;;6.20;99.90;;;;;;4976376;28;20259;-80
2023/04/27 01:51:40;;;;;;;4.73;2.10;;;6.20;99.90;;;;;;4976258;28;20195;-80
2023/04/27 01:54:05;;;;;;;4.53;2.20;;;6.20;99.90;;;;;;4976263;28;20634;-80
2023/04/27 01:56:31;;;;;;;4.13;2.57;;;6.20;99.90;;;;;;4976070;28;20229;-80
2023/04/27 01:58:57;;;;;;;9.43;2.80;;;6.20;99.90;;;;;;4975750;28;20513;-82
2023/04/27 02:01:22;;;;;;;7.60;2.57;;;6.10;99.90;;;;;;4976048;28;20251;-81
2023/04/27 02:03:48;;;;;;;5.63;2.73;;;6.20;99.90;;;;;;4991133;28;20616;-80
2023/04/27 02:06:14;;;;;;;5.13;2.33;;;6.10;99.90;;;;;;4975886;28;20176;-80
2023/04/27 02:08:39;;;;;;;3.93;2.60;;;6.10;99.90;;;;;;4975533;28;20177;-80
2023/04/27 02:11:05;;;;;;;8.40;3.03;;;6.10;99.90;;;;;;4975834;28;20228;-80
2023/04/27 02:13:31;;;;;;;8.73;2.40;;;6.10;99.90;;;;;;4990474;28;20291;-80
2023/04/27 02:15:56;;;;;;;4.53;2.53;;;6.10;99.90;;;;;;4975981;28;20223;-80
2023/04/27 02:18:23;;;;;;;12.00;2.87;;;6.00;99.90;;;;;;4990709;28;20180;-81
2023/04/27 02:20:48;;;;;;;5.90;2.47;;;6.00;99.90;;;;;;4975597;28;20623;-80
2023/04/27 02:25:50;;;;;;;4.10;2.50;;;6.00;99.90;;;;;;5096399;23;20246;-81
2023/04/27 02:28:15;;;;;;;7.07;3.20;;;5.90;99.90;;;;;;4994402;28;20222;-81
2023/04/27 02:30:41;;;;;;;6.43;2.67;;;5.90;99.90;;;;;;5010082;28;20517;-80
2023/04/27 02:33:07;;;;;;;6.13;2.30;;;5.90;99.90;;;;;;4994109;28;20187;-82
2023/04/27 02:35:32;;;;;;;6.80;2.53;;;5.80;99.90;;;;;;5004633;28;20194;-80
2023/04/27 02:37:58;;;;;;;5.40;2.63;;;5.80;99.90;;;;;;5013302;28;20181;-80
2023/04/27 02:40:24;;;;;;;6.00;2.73;;;5.80;99.90;;;;;;5014087;28;20257;-81
2023/04/27 02:42:50;;;;;;;4.47;2.70;;;5.80;99.90;;;;;;5014439;28;20207;-80
2023/04/27 02:45:16;;;;;;;5.70;3.03;;;5.70;99.90;;;;;;5013215;28;20179;-81
2023/04/27 02:47:44;;;;;;;5.60;2.70;;;5.70;99.90;;;;;;5014347;28;20164;-80
2023/04/27 02:50:10;;;;;;;3.60;2.50;;;5.70;99.90;;;;;;5014367;28;20178;-80
2023/04/27 02:52:35;;;;;;;5.63;3.00;;;5.70;99.90;;;;;;5014103;28;20176;-80
2023/04/27 02:55:01;;;;;;;6.23;2.87;;;5.60;99.90;;;;;;5013386;28;20551;-80
2023/04/27 02:57:27;;;;;;;6.67;3.23;;;5.70;99.90;;;;;;5012950;28;20186;-80
2023/04/27 02:59:53;;;;;;;5.87;3.07;;;5.60;99.90;;;;;;5014234;28;20199;-81
2023/04/27 03:02:18;;;;;;;7.77;3.23;;;5.60;99.90;;;;;;5013804;28;20234;-81
2023/04/27 03:04:44;;;;;;;10.60;3.73;;;5.60;99.90;;;;;;5014106;28;20211;-80
2023/04/27 03:07:11;;;;;;;7.57;3.10;;;5.60;99.90;;;;;;5013964;28;20179;-80
2023/04/27 03:09:37;;;;;;;9.77;3.60;;;5.60;99.90;;;;;;5013841;28;20221;-80
2023/04/27 03:12:03;;;;;;;8.90;3.93;;;5.60;99.90;;;;;;5013807;28;20179;-81
2023/04/27 03:14:29;;;;;;;6.23;3.43;;;5.60;99.90;;;;;;5014130;28;20318;-81
2023/04/27 03:16:56;;;;;;;7.17;3.43;;;5.60;99.90;;;;;;5013478;28;20258;-80
2023/04/27 03:19:22;;;;;;;7.90;3.23;;;5.50;99.90;;;;;;5013832;28;20503;-80
2023/04/27 03:21:47;;;;;;;5.23;3.33;;;5.50;99.90;;;;;;5013623;28;20207;-81
2023/04/27 03:24:13;;;;;;;6.70;3.53;;;5.40;99.90;;;;;;5013173;28;20211;-82
2023/04/27 03:26:39;;;;;;;8.97;3.77;;;5.40;99.90;;;;;;5013866;28;20171;-81
2023/04/27 03:29:05;;;;;;;9.67;3.57;;;5.40;99.90;;;;;;5013817;28;20166;-80
2023/04/27 03:31:31;;;;;;;11.53;3.67;;;5.30;99.90;;;;;;5013678;28;20183;-81
2023/04/27 03:33:56;;;;;;;6.33;3.80;;;5.20;99.90;;;;;;5013779;28;20175;-80
2023/04/27 03:36:22;;;;;;;8.00;3.70;;;5.20;99.90;;;;;;5013621;28;20629;-82
2023/04/27 03:38:48;;;;;;;8.53;3.67;;;5.10;99.90;;;;;;5016431;28;20233;-80
2023/04/27 03:41:13;;;;;;;7.27;3.80;;;5.00;99.90;;;;;;5017463;28;20206;-80
2023/04/27 03:43:39;;;;;;;6.37;3.47;;;5.00;99.90;;;;;;5017607;28;20187;-81
2023/04/27 03:46:05;;;;;;;6.37;3.77;;;4.90;99.90;;;;;;5017593;28;20179;-81
2023/04/27 03:48:30;;;;;;;7.07;3.90;;;4.90;99.90;;;;;;5017715;28;20202;-81
2023/04/27 03:50:56;;;;;;;7.60;3.77;;;4.90;99.90;;;;;;5017284;28;20175;-81
2023/04/27 03:53:22;;;;;;;8.63;4.07;;;4.80;99.90;;;;;;5017290;28;20236;-80
2023/04/27 03:55:47;;;;;;;7.97;3.70;;;4.80;99.90;;;;;;5015996;28;20230;-81
2023/04/27 03:58:13;;;;;;;8.47;3.93;;;4.80;99.90;;;;;;5016284;28;20183;-80
2023/04/27 04:00:39;;;;;;;4.60;3.40;;;4.80;99.90;;;;;;5017408;28;20175;-81
2023/04/27 04:03:06;;;;;;;6.07;4.07;;;4.80;99.90;;;;;;5017123;28;20210;-82
2023/04/27 04:05:32;;;;;;;7.13;3.97;;;4.80;99.90;;;;;;5017065;28;20637;-81
2023/04/27 04:07:58;;;;;;;10.90;4.20;;;4.80;99.90;;;;;;5017388;28;20179;-81
2023/04/27 04:10:24;;;;;;;6.97;3.53;;;4.80;99.90;;;;;;5017070;28;20171;-81
2023/04/27 04:12:51;;;;;;;5.60;4.00;;;4.80;99.90;;;;;;5016937;28;20602;-80
2023/04/27 04:15:18;;;;;;;9.57;4.07;;;4.80;99.90;;;;;;5015866;28;20183;-84
2023/04/27 04:17:46;;;;;;;5.20;3.40;;;4.80;99.90;;;;;;5017259;28;20572;-82
2023/04/27 04:20:11;;;;;;;6.33;4.00;;;4.80;99.90;;;;;;5017000;28;20160;-81
2023/04/27 04:22:37;;;;;;;9.60;4.17;;;4.80;99.90;;;;;;5015509;28;20226;-82
2023/04/27 04:25:04;;;;;;;8.23;3.90;;;4.90;99.90;;;;;;5015326;28;20606;-82
2023/04/27 04:27:32;;;;;;;11.93;4.33;;;4.80;99.90;;;;;;5017057;28;20259;-81
2023/04/27 04:29:59;;;;;;;7.93;4.37;;;4.80;99.90;;;;;;5016820;28;20995;-82
2023/04/27 04:32:31;;;;;;;11.70;3.93;;;4.80;99.90;;;;;;5016870;28;20179;-82
2023/04/27 04:34:57;;;;;;;7.37;4.07;;;4.80;99.90;;;;;;5016908;28;20253;-80
2023/04/27 04:37:23;;;;;;;8.20;4.60;;;4.90;99.90;;;;;;5016936;28;20176;-80
2023/04/27 04:39:49;;;;;;;8.87;4.20;;;4.80;99.90;;;;;;5015348;28;20229;-81
2023/04/27 04:42:15;;;;;;;12.07;4.60;;;4.80;99.90;;;;;;5015559;28;20218;-80
2023/04/27 04:44:41;;;;;;;9.13;4.33;;;4.80;99.90;;;;;;4997807;28;20263;-81
2023/04/27 04:47:08;;;;;;;7.63;4.10;;;4.80;99.90;;;;;;4996839;28;20183;-82
2023/04/27 04:49:34;;;;;;;10.37;4.20;;;4.80;99.90;;;;;;4995894;28;20211;-81
2023/04/27 04:52:00;;;;;;;6.80;3.80;;;4.90;99.90;;;;;;4996364;28;20314;-80
2023/04/27 04:54:26;;;;;;;8.37;4.50;;;4.90;99.90;;;;;;4994661;28;20620;-81
2023/04/27 04:56:52;;;;;;;7.77;4.27;;;4.90;99.90;;;;;;4996391;28;20207;-80
2023/04/27 04:59:17;;;;;;;9.27;4.37;;;5.00;99.90;;;;;;5001436;28;20226;-81
2023/04/27 05:01:43;;;;;;;9.07;4.53;;;5.10;99.90;;;;;;5016148;28;20209;-80
2023/04/27 05:04:09;;;;;;;7.50;4.37;;;5.20;99.90;;;;;;5016271;28;20179;-80
2023/04/27 05:06:35;;;;;;;12.17;4.60;;;5.30;99.90;;;;;;4996796;28;20550;-79
2023/04/27 05:09:01;;;;;;;7.93;4.47;;;5.30;99.90;;;;;;4996700;28;20246;-79
2023/04/27 05:11:26;;;;;;;8.33;4.20;;;5.40;99.90;;;;;;4996409;28;20527;-80
2023/04/27 05:13:52;;;;;;;10.83;4.67;;;5.40;99.90;;;;;;4996491;28;20180;-80
2023/04/27 05:16:18;;;;;;;10.40;5.23;;;5.50;99.90;;;;;;5011622;28;20588;-80
2023/04/27 05:18:43;;;;;;;9.57;4.57;;;5.60;99.90;;;;;;4996600;28;20252;-80
2023/04/27 05:21:19;;;;;;;13.40;5.33;;;5.60;99.90;;;;;;4996354;28;20175;-81
2023/04/27 05:23:45;;;;;;;11.57;5.17;;;5.60;99.90;;;;;;4996247;28;20166;-80
2023/04/27 05:26:17;;;;;;;9.67;4.73;;;5.70;99.90;;;;;;4996199;28;20172;-80
2023/04/27 05:28:43;;;;;;;9.13;4.73;;;5.80;99.90;;;;;;4996324;28;20176;-80
2023/04/27 05:31:09;;;;;;;6.93;4.53;;;5.90;99.90;;;;;;4994684;28;20190;-80
2023/04/27 05:33:35;;;;;;;7.53;4.23;;;5.90;99.90;;;;;;4996198;28;20575;-79
2023/04/27 05:36:01;;;;;;;8.00;4.33;;;6.00;99.90;;;;;;5011245;28;20187;-80
2023/04/27 05:38:26;;;;;;;9.13;4.87;;;6.10;99.90;;;;;;5015585;28;20234;-80
2023/04/27 05:40:56;;;;;;;7.93;4.47;;;6.10;99.90;;;;;;5015558;28;20521;-79
2023/04/27 05:43:22;;;;;;;7.97;4.40;;;6.20;99.90;;;;;;5013861;28;20191;-79
2023/04/27 05:45:48;;;;;;;8.87;4.20;;;6.20;99.90;;;;;;5015605;28;20237;-79
2023/04/27 05:48:14;;;;;;;8.27;4.00;;;6.30;99.90;;;;;;5015410;28;20180;-79
2023/04/27 05:50:40;;;;;;;7.97;4.83;;;6.40;99.90;;;;;;5015596;28;20160;-80
2023/04/27 05:53:05;;;;;;;13.43;5.10;;;6.40;99.90;;;;;;5015603;28;20171;-79
2023/04/27 05:55:31;;;;;;;7.60;4.40;;;6.60;99.90;;;;;;5014674;28;20175;-80
2023/04/27 05:57:57;;;;;;;9.17;4.37;;;6.60;99.90;;;;;;5013736;28;20179;-80
2023/04/27 06:00:23;;;;;;;8.90;4.20;;;6.70;99.90;;;;;;5014795;28;20247;-80
2023/04/27 06:02:49;;;;;;;8.47;4.40;;;6.70;99.90;;;;;;5014392;28;20241;-80
2023/04/27 06:05:15;;;;;;;12.07;4.30;;;6.70;99.90;;;;;;5013893;28;20207;-80
2023/04/27 06:07:42;;;;;;;10.40;3.90;;;6.90;99.90;;;;;;5015096;28;20694;-79
2023/04/27 06:10:09;;;;;;;7.13;4.47;;;6.90;99.90;;;;;;5014769;28;20163;-80
2023/04/27 06:12:35;;;;;;;8.30;4.23;;;7.00;99.90;;;;;;5014924;28;20183;-80
2023/04/27 06:15:06;;;;;;;6.60;4.23;;;7.10;99.90;;;;;;5013642;28;20176;-80
2023/04/27 06:17:34;;;;;;;8.53;4.30;;;7.20;99.90;;;;;;5013835;28;20175;-81
2023/04/27 06:19:59;;;;;;;6.97;3.77;;;7.20;99.90;;;;;;5014874;28;20170;-81
2023/04/27 06:22:26;;;;;;;6.60;3.97;;;7.30;99.90;;;;;;5014602;28;20207;-79
2023/04/27 06:24:51;;;;;;;8.80;4.20;;;7.30;99.90;;;;;;5013053;28;20230;-79
2023/04/27 06:27:17;;;;;;;10.03;4.70;;;7.40;99.90;;;;;;5014760;28;20176;-79
2023/04/27 06:29:43;;;;;;;6.17;4.13;;;7.50;99.90;;;;;;5014717;28;20254;-79
2023/04/27 06:32:08;;;;;;;6.43;3.43;;;7.60;99.90;;;;;;5014804;28;20179;-80
2023/04/27 06:34:34;;;;;;;6.83;3.70;;;7.60;99.90;;;;;;5014633;28;20510;-80
2023/04/27 06:37:00;;;;;;;7.87;3.90;;;7.70;99.90;;;;;;5014661;28;20179;-79
2023/04/27 06:39:25;;;;;;;9.27;3.53;;;7.70;99.90;;;;;;5014601;28;20178;-80
2023/04/27 06:41:51;;;;;;;5.90;3.47;;;7.70;99.90;;;;;;5012675;28;20214;-79
2023/04/27 06:44:17;;;;;;;8.73;3.70;;;7.70;99.90;;;;;;5014581;28;20191;-79
2023/04/27 06:46:43;;;;;;;7.03;2.83;;;7.90;99.90;;;;;;5013217;28;20262;-79
2023/04/27 06:49:08;;;;;;;8.50;3.10;;;7.90;99.90;;;;;;5014333;28;20198;-80
2023/04/27 06:51:34;;;;;;;13.23;2.97;;;7.90;99.90;;;;;;5014298;28;20172;-80
2023/04/27 06:54:00;;;;;;;10.33;3.03;;;7.90;99.90;;;;;;5014265;28;20586;-79
2023/04/27 06:56:25;;;;;;;10.60;3.37;;;8.00;99.90;;;;;;5014068;28;20217;-79
2023/04/27 06:58:51;;;;;;;7.60;2.67;;;8.00;99.90;;;;;;5014193;28;20183;-80
2023/04/27 07:01:17;;;;;;;5.77;2.40;;;8.10;99.90;;;;;;5012921;28;20278;-80
2023/04/27 07:03:42;;;;;;;5.10;2.30;;;8.30;99.90;;;;;;5012746;28;20194;-79
2023/04/27 07:06:08;;;;;;;6.53;2.60;;;8.20;99.90;;;;;;5014112;28;20557;-79
2023/04/27 07:08:34;;;;;;;4.97;2.03;;;8.10;99.90;;;;;;5014154;28;20179;-80
2023/04/27 07:11:00;;;;;;;8.87;2.33;;;8.20;99.90;;;;;;5013813;28;20613;-81
2023/04/27 07:13:26;;;;;;;8.77;2.30;;;8.00;99.90;;;;;;5013635;28;20618;-80
2023/04/27 07:15:59;;;;;;;4.03;2.20;;;8.10;99.90;;;;;;5014352;28;20513;-79
2023/04/27 07:18:26;;;;;;;6.97;2.47;;;8.40;99.90;;;;;;5014001;28;20302;-80
2023/04/27 07:20:53;;;;;;;9.57;2.20;;;8.50;99.90;;;;;;5013958;28;20170;-80
2023/04/27 07:23:20;;;;;;;6.00;2.50;;;8.80;99.90;;;;;;5013791;28;20685;-80
2023/04/27 07:25:46;;;;;;;4.03;2.30;;;8.80;99.90;;;;;;5013524;28;20219;-80
2023/04/27 07:28:12;;;;;;;9.17;2.00;;;8.70;99.90;;;;;;5014050;28;20179;-80
2023/04/27 07:30:38;;;;;;;9.00;2.47;;;8.70;99.90;;;;;;5014016;28;20202;-80
2023/04/27 07:33:04;;;;;;;6.43;2.10;;;8.70;99.90;;;;;;5013674;28;20207;-82
2023/04/27 07:35:30;;;;;;;8.37;2.27;;;8.40;99.90;;;;;;5013856;28;20186;-79
2023/04/27 07:37:56;;;;;;;8.10;2.03;;;8.30;99.90;;;;;;5013857;28;20172;-80
2023/04/27 07:40:23;;;;;;;5.67;2.00;;;8.20;99.90;;;;;;5013421;28;20900;-80
2023/04/27 07:42:49;;;;;;;5.43;2.03;;;8.20;99.90;;;;;;5013603;28;20207;-79
2023/04/27 07:45:16;;;;;;;6.40;1.70;;;8.30;99.90;;;;;;5012550;28;20233;-81
2023/04/27 07:47:43;;;;;;;2.33;1.67;;;8.70;99.90;;;;;;5013611;28;20262;-80
2023/04/27 07:50:09;;;;;;;6.07;2.10;;;9.10;99.90;;;;;;5013628;28;20163;-80
2023/04/27 07:52:36;;;;;;;6.30;2.00;;;9.40;99.90;;;;;;5012128;28;20179;-79
2023/04/27 07:55:02;;;;;;;5.63;2.10;;;9.60;99.90;;;;;;5013409;28;20167;-80
2023/04/27 07:57:28;;;;;;;4.40;1.23;;;9.70;99.90;;;;;;5013712;28;20226;-80
2023/04/27 07:59:55;;;;;;;6.23;1.50;;;9.30;99.90;;;;;;5013595;28;20171;-80
2023/04/27 08:02:21;;;;;;;5.23;1.70;;;9.00;99.90;;;;;;5012146;28;20265;-81
2023/04/27 08:04:47;;;;;;;6.97;1.70;;;8.70;99.90;;;;;;5013607;28;20605;-81
2023/04/27 08:07:17;;;;;;;9.87;1.87;;;8.50;99.90;;;;;;5013537;28;20178;-80
2023/04/27 08:09:43;;;;;;;5.30;1.70;;;8.40;99.90;;;;;;5013600;28;20179;-80
2023/04/27 08:12:08;;;;;;;7.80;2.10;;;8.60;99.90;;;;;;5013160;28;20183;-80
2023/04/27 08:14:34;;;;;;;4.17;1.73;;;9.00;99.90;;;;;;5013604;28;20629;-79
2023/04/27 08:17:00;;;;;;;3.90;1.77;;;9.40;99.90;;;;;;5012425;28;20565;-80
2023/04/27 08:19:27;;;;;;;8.13;1.63;;;9.60;99.90;;;;;;5012889;28;20175;-82
2023/04/27 08:21:52;;;;;;;3.72;1.38;;;9.80;99.90;;;;;;5012967;28;20195;-81
2023/04/27 08:24:19;;;;;;;4.55;1.52;;;9.90;99.80;;;;;;5013334;28;20227;-82
2023/04/27 08:26:45;;;;;;;6.63;1.90;;;9.90;99.90;;;;;;5011250;28;20191;-81
2023/04/27 08:29:11;;;;;;;5.87;2.43;;;9.80;99.90;;;;;;5014502;28;20210;-80
2023/04/27 08:31:37;;;;;;;3.00;1.50;;;9.90;99.90;;;;;;5014364;28;20175;-81
2023/04/27 08:34:02;;;;;;;4.00;1.50;;;10.00;99.90;;;;;;5016551;28;20183;-79
2023/04/27 08:36:28;;;;;;;3.00;1.00;;;10.00;99.90;;;;;;5016098;28;20267;-81
2023/04/27 08:38:54;;;;;;;3.35;1.08;;;9.70;97.30;;;;;;5016459;28;20190;-81
2023/04/27 08:41:22;;;;;;;8.35;1.40;;;9.60;99.00;;;;;;5016149;28;20532;-81
2023/04/27 08:43:49;;;;;;;3.67;1.30;;;9.50;99.00;;;;;;5016378;28;20187;-81
2023/04/27 08:46:22;;;;;;;5.77;1.27;;;9.30;99.70;;;;;;5015104;28;20270;-80
2023/04/27 08:48:52;;;;;;;1.60;1.10;;;9.40;99.90;;;;;;5016344;28;20175;-81
2023/04/27 08:51:19;;;;;;;3.38;1.20;;;9.80;99.90;;;;;;5016407;28;20606;-79
2023/04/27 08:53:49;;;;;;;4.63;1.30;;;10.30;98.40;;;;;;5016319;28;20222;-80
2023/04/27 08:56:15;;;;;;;3.45;1.45;;;10.50;96.70;;;;;;5016165;28;20600;-81
2023/04/27 08:58:41;;;;;;;4.57;1.20;;;10.60;92.60;;;;;;5014983;28;20175;-82
2023/04/27 09:01:07;;;;;;;2.70;1.00;;;10.70;95.80;;;;;;5014843;28;20575;-80
2023/04/27 09:03:35;;;;;;;2.60;1.10;;;10.60;96.40;;;;;;5016004;28;20207;-80
2023/04/27 09:06:02;;;;;;;2.25;1.10;;;10.40;93.10;;;;;;5015654;28;20179;-79
2023/04/27 09:08:28;;;;;;;3.42;1.50;;;10.10;95.00;;;;;;5016226;28;20265;-79
2023/04/27 09:10:54;;;;;;;3.95;1.70;;;9.80;95.90;;;;;;5015952;28;20246;-81
2023/04/27 09:13:20;;;;;;;2.55;1.40;;;9.50;96.40;;;;;;5014471;28;20241;-80
2023/04/27 09:15:51;;;;;;;6.95;1.73;;;9.30;97.80;;;;;;5014410;28;20179;-81
2023/04/27 09:18:21;;;;;;;4.80;1.50;;;9.10;99.30;;;;;;5015847;28;20171;-80
2023/04/27 09:20:51;;;;;;;4.40;1.30;;;9.00;99.90;;;;;;5015918;28;20178;-81
2023/04/27 09:23:28;;;;;;;6.78;1.40;;;9.30;99.90;;;;;;5015659;28;20642;-81
2023/04/27 09:25:57;;;;;;;10.57;1.63;;;9.80;99.40;;;;;;5013973;28;20235;-79
2023/04/27 09:28:28;;;;;;;3.55;0.93;;;10.30;98.00;;;;;;5015561;28;20252;-80
2023/04/27 09:30:56;;;;;;;4.70;1.02;;;10.70;94.50;;;;;;5014425;28;20179;-80
2023/04/27 09:33:24;;;;;;;3.97;1.38;;;10.50;94.00;;;;;;5014148;28;20528;-80
2023/04/27 09:35:50;;;;;;;3.50;1.27;;;10.40;96.70;;;;;;5014209;28;20191;-81
2023/04/27 09:38:18;;;;;;;3.58;1.33;;;10.20;96.60;;;;;;5014184;28;20175;-80
2023/04/27 09:40:44;;;;;;;5.60;1.70;;;10.00;97.00;;;;;;5015168;28;20289;-79
2023/04/27 09:43:11;;;;;;;4.05;1.30;;;9.90;95.40;;;;;;5013781;28;20566;-79
2023/04/27 09:45:37;;;;;;;5.80;1.70;;;9.80;95.90;;;;;;5013940;28;20195;-79
2023/04/27 09:48:07;;;;;;;2.78;1.40;;;10.20;97.90;;;;;;5014146;28;20182;-80
2023/04/27 09:50:38;;;;;;;8.38;1.65;;;10.70;98.30;;;;;;5014914;28;20526;-81
2023/04/27 09:53:29;;;;;;;4.10;1.38;;;11.30;99.90;;;;;;5014584;28;20744;-83
2023/04/27 09:56:13;;;;;;;3.30;1.30;;;11.30;96.30;;;;;;5010779;28;20198;-81
2023/04/27 09:58:57;;;;;;;4.40;1.17;;;11.00;93.60;;;;;;5014036;28;20648;-79
2023/04/27 10:01:44;;;;;;;5.50;1.50;;;10.80;91.40;;;;;;5014727;28;20183;-81
2023/04/27 10:04:46;;;;;;;4.50;1.45;;;10.50;95.70;;;;;;5014973;28;20254;-80
2023/04/27 10:07:14;;;;;;;4.25;1.50;;;10.30;95.10;;;;;;5015131;28;20200;-80
2023/04/27 10:09:45;;;;;;;4.88;1.38;;;10.20;95.00;;;;;;5014938;28;20262;-81
2023/04/27 10:12:21;;;;;;;6.03;1.52;;;10.20;94.00;;;;;;5012450;28;20182;-80
2023/04/27 10:14:55;;;;;;;5.93;1.60;;;10.20;91.70;;;;;;5012618;28;20181;-80
2023/04/27 10:17:25;;;;;;;3.85;1.60;;;10.10;92.70;;;;;;5012531;28;20206;-81
2023/04/27 10:19:56;;;;;;;4.00;1.70;;;10.20;94.40;;;;;;5013529;28;20270;-80
2023/04/27 10:22:23;;;;;;;8.75;1.60;;;10.50;96.60;;;;;;5013393;28;20214;-80
2023/04/27 10:24:50;;;;;;;3.75;1.27;;;10.90;96.10;;;;;;5013267;28;20257;-81
2023/04/27 10:27:20;;;;;;;2.90;1.40;;;11.30;95.20;;;;;;5014467;28;20179;-80
2023/04/27 10:29:47;;;;;;;2.90;1.10;;;11.60;93.00;;;;;;5014499;28;20634;-80
2023/04/27 10:32:22;;;;;;;6.40;1.27;;;11.70;90.20;;;;;;5014277;28;20621;-80
2023/04/27 10:35:04;;;;;;;3.20;1.13;;;11.80;92.60;;;;;;5014475;28;20661;-81
2023/04/27 10:37:48;;;;;;;4.72;1.45;;;11.90;92.00;;;;;;5013360;28;20183;-80
2023/04/27 10:40:17;;;;;;;2.60;1.30;;;12.10;90.00;;;;;;5013322;28;20214;-79
2023/04/27 10:42:48;;;;;;;3.97;1.17;;;12.30;91.00;;;;;;5014458;28;20234;-80
2023/04/27 10:45:25;;;;;;;2.97;0.98;;;12.60;90.70;;;;;;5014491;28;20228;-80
2023/04/27 10:47:58;;;;;;;1.10;1.00;;;12.90;93.00;;;;;;5013839;28;20163;-80
2023/04/27 10:50:24;;;;;;;4.30;1.40;;;13.30;87.30;;;;;;5014513;28;20262;-81
2023/04/27 10:52:50;;;;;;;1.92;1.27;;;13.20;89.40;;;;;;5014253;28;20172;-82
2023/04/27 10:55:17;;;;;;;7.53;1.88;;;12.70;89.30;;;;;;5014260;28;20167;-81
2023/04/27 10:57:54;;;;;;;2.85;1.33;;;12.40;88.60;;;;;;5014083;28;20179;-80
2023/04/27 11:00:40;;;;;;;5.45;1.60;;;12.10;85.20;;;;;;5012903;28;20175;-80
2023/04/27 11:03:18;;;;;;;3.08;1.38;;;11.60;86.40;;;;;;5013898;28;20776;-80
2023/04/27 11:05:45;;;;;;;2.45;1.20;;;11.30;90.30;;;;;;5014200;28;20595;-80
2023/04/27 11:08:16;;;;;;;6.85;1.58;;;11.10;93.00;;;;;;5012752;28;20187;-81
2023/04/27 11:10:48;;;;;;;2.08;1.10;;;11.00;94.00;;;;;;5013747;28;20159;-80
2023/04/27 11:13:19;;;;;;;7.03;1.95;;;11.10;93.70;;;;;;5012608;28;20270;-81
2023/04/27 11:15:56;;;;;;;2.13;1.45;;;11.10;93.30;;;;;;5008542;28;20200;-81
2023/04/27 11:18:34;;;;;;;3.40;1.58;;;11.40;93.10;;;;;;5001174;28;20195;-80
2023/04/27 11:21:19;;;;;;;4.88;1.33;;;11.50;93.60;;;;;;5011675;28;20626;-81
2023/04/27 11:23:45;;;;;;;1.70;1.15;;;11.50;91.90;;;;;;5012225;28;20233;-82
2023/04/27 11:26:20;;;;;;;6.28;1.40;;;11.60;93.20;;;;;;5012400;28;20210;-81
2023/04/27 11:29:04;;;;;;;2.75;1.15;;;11.50;92.80;;;;;;5012610;28;20277;-80
2023/04/27 11:31:48;;;;;;;1.92;1.17;;;11.50;92.60;;;;;;5012442;28;20179;-80
2023/04/27 11:34:21;;;;;;;3.05;1.20;;;11.40;92.30;;;;;;5013892;28;20205;-80
2023/04/27 11:36:59;;;;;;;3.40;1.20;;;11.30;91.70;;;;;;5013871;28;20171;-80
2023/04/27 11:39:36;;;;;;;4.13;1.40;;;11.30;91.40;;;;;;5013827;28;20179;-80
2023/04/27 11:42:22;;;;;;;2.35;1.38;;;11.30;90.60;;;;;;5013319;28;20205;-81
2023/04/27 11:44:58;;;;;;;2.47;1.10;;;11.40;89.70;;;;;;5013845;28;20182;-80
2023/04/27 11:47:26;;;;;;;3.60;1.35;;;11.40;88.50;;;;;;5012479;28;20190;-81
2023/04/27 11:49:55;;;;;;;1.35;1.10;;;11.50;89.70;;;;;;5014088;28;20171;-81
2023/04/27 11:52:34;;;;;;;2.80;1.35;;;11.50;91.90;;;;;;5013291;28;20202;-83
2023/04/27 11:55:02;;;;;;;4.15;1.40;;;11.40;89.00;;;;;;5012684;28;20637;-81
2023/04/27 11:57:30;;;;;;;1.60;1.13;;;11.40;89.60;;;;;;5012187;28;20190;-80
2023/04/27 11:59:59;;;;;;;1.77;1.10;;;11.40;88.80;;;;;;5016787;28;20167;-82
2023/04/27 12:02:25;;;;;;;6.72;1.33;;;11.30;90.90;;;;;;5016174;28;20529;-81
2023/04/27 12:04:51;;;;;;;3.50;1.30;;;11.30;91.90;;;;;;5017486;28;20179;-83
2023/04/27 12:07:18;;;;;;;2.17;1.30;;;11.80;93.00;;;;;;5017623;28;20171;-81
2023/04/27 12:09:43;;;;;;;3.95;1.25;;;12.30;90.50;;;;;;5017198;28;20677;-79
2023/04/27 12:12:11;;;;;;;3.63;1.10;;;12.80;85.80;;;;;;5016798;28;20184;-80
2023/04/27 12:14:37;;;;;;;5.18;1.17;;;13.00;84.20;;;;;;5016053;28;20182;-81
2023/04/27 12:17:03;;;;;;;4.28;1.15;;;13.10;81.10;;;;;;5016065;28;20183;-82
2023/04/27 12:19:29;;;;;;;3.90;1.08;;;12.70;80.20;;;;;;5017308;28;20183;-81
2023/04/27 12:21:57;;;;;;;4.68;1.05;;;12.30;83.70;;;;;;5014533;28;20205;-81
2023/04/27 12:24:23;;;;;;;2.97;1.17;;;12.20;81.00;;;;;;5015379;28;20233;-81
2023/04/27 12:26:50;;;;;;;5.75;1.17;;;12.00;82.70;;;;;;5015690;28;20179;-82
2023/04/27 12:29:16;;;;;;;1.95;1.15;;;12.00;85.90;;;;;;5015954;28;20183;-80
2023/04/27 12:31:42;;;;;;;2.17;1.20;;;11.90;85.60;;;;;;5015149;28;20183;-80
2023/04/27 12:34:08;;;;;;;1.90;1.10;;;11.80;83.50;;;;;;5016690;28;20190;-79
2023/04/27 12:36:34;;;;;;;3.55;1.30;;;11.80;82.90;;;;;;5015785;28;20198;-80
2023/04/27 12:39:20;;;;;;;3.60;1.20;;;11.60;88.80;;;;;;5014971;28;20175;-82
2023/04/27 12:41:50;;;;;;;2.03;1.25;;;11.60;90.10;;;;;;5016700;28;20196;-81
2023/04/27 12:44:17;;;;;;;6.75;1.48;;;11.70;90.90;;;;;;5016254;28;20167;-82
2023/04/27 12:46:44;;;;;;;1.95;1.30;;;11.80;91.10;;;;;;5016771;28;20226;-81
2023/04/27 12:49:11;;;;;;;3.85;1.20;;;11.90;90.50;;;;;;5015428;28;20175;-83
2023/04/27 12:51:37;;;;;;;2.53;1.00;;;12.10;88.50;;;;;;5014650;28;20179;-81
2023/04/27 12:54:04;;;;;;;5.40;1.52;;;12.50;86.10;;;;;;5016474;28;20278;-83
2023/04/27 12:56:30;;;;;;;1.45;1.13;;;13.00;87.00;;;;;;5014526;28;20292;-83
2023/04/27 12:58:56;;;;;;;2.33;1.20;;;13.20;85.50;;;;;;5015474;28;20175;-81